createdAt,value
2024-03-02T00:01:30.103Z,29.58
2024-03-02T00:04:00.870Z,29.57
2024-03-02T00:06:31.664Z,29.59
2024-03-02T00:09:02.661Z,29.63
2024-03-02T00:11:33.285Z,29.66
2024-03-02T00:14:03.778Z,29.67
2024-03-02T00:16:35.159Z,29.68
2024-03-02T00:19:08.166Z,29.70
2024-03-02T00:21:39.216Z,29.71
2024-03-02T00:24:30.683Z,29.69
2024-03-02T00:27:01.846Z,29.74
2024-03-02T00:29:32.382Z,29.78
2024-03-02T00:32:04.670Z,29.61
2024-03-02T00:34:35.749Z,29.86
2024-03-02T00:37:06.456Z,29.84
2024-03-02T00:39:37.761Z,29.89
2024-03-02T00:42:09.253Z,29.90
2024-03-02T00:44:40.025Z,29.93
2024-03-02T00:47:11.059Z,29.93
2024-03-02T00:49:42.008Z,29.96
2024-03-02T00:52:13.210Z,29.97
2024-03-02T00:54:44.188Z,29.98
2024-03-02T00:57:15.164Z,30.04
2024-03-02T00:59:45.705Z,30.04
2024-03-02T01:02:16.410Z,29.90
2024-03-02T01:04:47.030Z,30.05
2024-03-02T01:07:17.804Z,30.07
2024-03-02T01:09:49.088Z,30.12
2024-03-02T01:12:20.109Z,30.13
2024-03-02T01:14:50.873Z,30.16
2024-03-02T01:17:21.546Z,30.17
2024-03-02T01:19:52.043Z,30.18
2024-03-02T01:22:27.223Z,30.19
2024-03-02T01:24:57.802Z,30.21
2024-03-02T01:27:29.262Z,30.23
2024-03-02T01:30:02.014Z,30.20
2024-03-02T01:32:32.828Z,30.23
2024-03-02T01:35:03.336Z,30.27
2024-03-02T01:37:33.760Z,30.30
2024-03-02T01:40:05.147Z,30.34
2024-03-02T01:42:36.992Z,30.28
2024-03-02T01:45:09.541Z,30.10
2024-03-02T01:47:40.235Z,30.36
2024-03-02T01:50:11.211Z,30.40
2024-03-02T01:52:42.127Z,30.44
2024-03-02T01:55:12.832Z,30.50
2024-03-02T01:57:43.153Z,30.54
2024-03-02T02:00:14.754Z,30.57
2024-03-02T02:02:46.691Z,30.60
2024-03-02T02:05:17.262Z,30.54
2024-03-02T02:07:47.890Z,30.65
2024-03-02T02:10:19.010Z,30.68
2024-03-02T02:12:49.774Z,30.64
2024-03-02T02:15:31.175Z,30.54
2024-03-02T02:18:01.962Z,30.72
2024-03-02T02:20:32.589Z,30.80
2024-03-02T02:23:15.130Z,30.75
2024-03-02T02:25:45.628Z,30.83
2024-03-02T02:28:16.224Z,30.88
2024-03-02T02:30:46.779Z,30.87
2024-03-02T02:33:17.499Z,30.92
2024-03-02T02:35:48.093Z,30.95
2024-03-02T02:38:18.779Z,30.97
2024-03-02T02:40:49.144Z,31.00
2024-03-02T02:43:20.025Z,31.02
2024-03-02T02:45:50.944Z,30.86
2024-03-02T02:48:21.872Z,31.08
2024-03-02T02:50:52.534Z,31.14
2024-03-02T02:53:22.910Z,31.16
2024-03-02T02:55:53.801Z,31.20
2024-03-02T02:58:24.285Z,31.23
2024-03-02T03:00:57.032Z,31.27
2024-03-02T03:03:27.695Z,31.22
2024-03-02T03:05:58.116Z,31.20
2024-03-02T03:08:28.847Z,31.15
2024-03-02T03:11:00.152Z,31.20
2024-03-02T03:13:30.812Z,31.23
2024-03-02T03:16:01.736Z,31.15
2024-03-02T03:18:32.657Z,31.23
2024-03-02T03:21:03.083Z,31.26
2024-03-02T03:23:33.771Z,31.29
2024-03-02T03:26:04.297Z,31.30
2024-03-02T03:28:35.084Z,31.34
2024-03-02T03:31:05.976Z,31.36
2024-03-02T03:33:36.956Z,31.39
2024-03-02T03:36:07.947Z,31.41
2024-03-02T03:38:38.657Z,31.43
2024-03-02T03:41:09.327Z,31.46
2024-03-02T03:43:39.883Z,31.47
2024-03-02T03:46:10.368Z,31.52
2024-03-02T03:48:41.048Z,31.47
2024-03-02T03:51:11.787Z,31.58
2024-03-02T03:53:42.325Z,31.59
2024-03-02T03:56:12.929Z,31.64
2024-03-02T03:58:43.718Z,31.66
2024-03-02T04:01:14.276Z,31.69
2024-03-02T04:03:45.268Z,31.56
2024-03-02T04:06:16.352Z,31.74
2024-03-02T04:08:47.290Z,31.79
2024-03-02T04:11:18.811Z,31.80
2024-03-02T04:13:49.505Z,31.82
2024-03-02T04:16:19.990Z,31.86
2024-03-02T04:18:51.191Z,31.82
2024-03-02T04:21:21.921Z,31.71
2024-03-02T04:23:52.685Z,31.68
2024-03-02T04:26:24.352Z,31.61
2024-03-02T04:28:55.357Z,31.48
2024-03-02T04:31:26.061Z,31.56
2024-03-02T04:33:56.939Z,31.56
2024-03-02T04:36:27.625Z,31.45
2024-03-02T04:38:59.220Z,31.48
2024-03-02T04:41:29.999Z,31.47
2024-03-02T04:44:00.792Z,31.30
2024-03-02T04:46:31.141Z,31.39
2024-03-02T04:49:01.706Z,31.34
2024-03-02T04:51:32.280Z,31.33
2024-03-02T04:54:03.638Z,31.28
2024-03-02T04:56:34.188Z,31.34
2024-03-02T04:59:04.939Z,31.33
2024-03-02T05:01:36.153Z,31.34
2024-03-02T05:04:07.392Z,31.33
2024-03-02T05:06:38.068Z,31.34
2024-03-02T05:09:09.763Z,31.31
2024-03-02T05:11:40.978Z,31.30
2024-03-02T05:14:11.754Z,31.25
2024-03-02T05:16:43.622Z,31.23
2024-03-02T05:19:14.641Z,31.26
2024-03-02T05:21:45.695Z,31.30
2024-03-02T05:24:17.306Z,31.29
2024-03-02T05:26:48.420Z,31.32
2024-03-02T05:29:19.521Z,31.25
2024-03-02T05:31:50.868Z,31.25
2024-03-02T05:34:21.907Z,31.32
2024-03-02T05:36:52.872Z,31.29
2024-03-02T05:39:23.779Z,31.32
2024-03-02T05:41:54.432Z,31.41
2024-03-02T05:44:25.606Z,31.41
2024-03-02T05:46:56.131Z,31.42
2024-03-02T05:49:27.166Z,31.44
2024-03-02T05:51:58.096Z,31.38
2024-03-02T05:54:29.103Z,31.40
2024-03-02T05:57:18.713Z,31.40
2024-03-02T05:59:49.781Z,31.42
2024-03-02T06:02:20.381Z,31.40
2024-03-02T06:04:51.284Z,31.34
2024-03-02T06:07:22.021Z,31.38
2024-03-02T06:09:54.659Z,31.38
2024-03-02T06:12:26.400Z,31.41
2024-03-02T06:14:57.294Z,31.39
2024-03-02T06:17:28.232Z,31.42
2024-03-02T06:19:59.353Z,31.41
2024-03-02T06:22:30.263Z,31.44
2024-03-02T06:25:01.939Z,31.46
2024-03-02T06:27:35.187Z,31.48
2024-03-02T06:30:06.904Z,31.48
2024-03-02T06:32:40.535Z,31.49
2024-03-02T06:35:12.312Z,31.62
2024-03-02T06:37:43.421Z,31.77
2024-03-02T06:40:14.508Z,31.92
2024-03-02T06:42:45.509Z,32.03
2024-03-02T06:45:17.681Z,32.16
2024-03-02T06:47:48.595Z,32.24
2024-03-02T06:50:20.385Z,32.32
2024-03-02T06:52:51.085Z,32.39
2024-03-02T06:55:22.170Z,32.47
2024-03-02T06:57:54.409Z,32.55
2024-03-02T07:00:25.696Z,32.62
2024-03-02T07:02:56.684Z,32.71
2024-03-02T07:05:27.658Z,32.79
2024-03-02T07:07:58.435Z,32.90
2024-03-02T07:10:29.354Z,32.92
2024-03-02T07:13:01.163Z,33.01
2024-03-02T07:16:07.154Z,33.06
2024-03-02T07:18:43.821Z,33.15
2024-03-02T07:21:14.854Z,33.22
2024-03-02T07:23:45.463Z,33.26
2024-03-02T07:28:51.345Z,33.34
2024-03-02T07:31:22.204Z,33.40
2024-03-02T07:33:53.113Z,33.46
2024-03-02T07:36:24.156Z,33.50
2024-03-02T07:38:55.176Z,33.56
2024-03-02T07:41:26.176Z,33.60
2024-03-02T07:43:57.744Z,33.62
2024-03-02T07:46:28.384Z,33.69
2024-03-02T07:48:59.335Z,33.73
2024-03-02T07:51:30.302Z,33.76
2024-03-02T07:54:01.225Z,33.81
2024-03-02T07:56:32.331Z,33.85
2024-03-02T07:59:04.213Z,33.87
2024-03-02T08:01:35.754Z,33.94
2024-03-02T08:04:07.009Z,33.93
2024-03-02T08:06:38.195Z,34.01
2024-03-02T08:09:12.326Z,34.06
2024-03-02T08:11:43.328Z,34.08
2024-03-02T08:14:14.853Z,34.11
2024-03-02T08:16:50.244Z,33.99
2024-03-02T08:19:21.391Z,33.97
2024-03-02T08:21:52.472Z,33.87
2024-03-02T08:24:25.544Z,34.01
2024-03-02T08:26:56.703Z,34.02
2024-03-02T08:29:27.739Z,33.99
2024-03-02T08:31:59.039Z,34.00
2024-03-02T08:34:29.996Z,34.21
2024-03-02T08:37:01.050Z,34.11
2024-03-02T08:39:32.327Z,34.07
2024-03-02T08:42:03.194Z,34.11
2024-03-02T08:44:33.916Z,34.08
2024-03-02T08:47:05.046Z,34.13
2024-03-02T08:49:36.117Z,34.11
2024-03-02T08:52:07.408Z,34.16
2024-03-02T08:54:39.889Z,34.20
2024-03-02T08:57:10.945Z,34.19
2024-03-02T08:59:41.958Z,34.22
2024-03-02T09:02:13.302Z,34.22
2024-03-02T09:04:46.407Z,34.10
2024-03-02T09:07:17.633Z,34.28
2024-03-02T09:09:48.579Z,34.29
2024-03-02T09:12:19.430Z,34.40
2024-03-02T09:14:53.870Z,34.42
2024-03-02T09:17:25.210Z,34.45
2024-03-02T09:19:56.527Z,34.47
2024-03-02T09:22:27.758Z,34.47
2024-03-02T09:24:59.024Z,34.39
2024-03-02T09:27:30.418Z,34.57
2024-03-02T09:30:01.813Z,34.56
2024-03-02T09:32:33.082Z,34.42
2024-03-02T09:35:03.976Z,34.57
2024-03-02T09:37:35.200Z,34.54
2024-03-02T09:40:06.810Z,34.61
2024-03-02T09:42:39.217Z,34.65
2024-03-02T09:45:10.708Z,34.64
2024-03-02T09:47:41.780Z,34.73
2024-03-02T09:50:12.803Z,34.64
2024-03-02T09:52:45.878Z,34.52
2024-03-02T09:55:18.110Z,34.66
2024-03-02T09:57:51.000Z,34.59
2024-03-02T10:00:22.211Z,34.61
2024-03-02T10:02:54.401Z,34.68
2024-03-02T10:05:32.272Z,34.67
2024-03-02T10:08:04.573Z,34.73
2024-03-02T10:10:45.260Z,34.54
2024-03-02T10:13:17.211Z,34.48
2024-03-02T10:15:50.055Z,34.69
2024-03-02T10:18:33.972Z,34.62
2024-03-02T10:21:22.791Z,34.63
2024-03-02T10:23:53.710Z,34.70
2024-03-02T10:26:24.688Z,34.68
2024-03-02T10:29:01.775Z,34.66
2024-03-02T10:31:34.809Z,34.66
2024-03-02T10:34:06.736Z,34.62
2024-03-02T10:36:38.881Z,34.68
2024-03-02T10:39:10.952Z,34.67
2024-03-02T10:41:43.248Z,34.75
2024-03-02T10:44:15.926Z,34.73
2024-03-02T10:46:50.134Z,34.71
2024-03-02T10:49:21.903Z,34.64
2024-03-02T10:51:53.245Z,34.55
2024-03-02T10:54:29.104Z,34.63
2024-03-02T10:57:02.683Z,34.52
2024-03-02T10:59:38.997Z,34.66
2024-03-02T11:02:16.134Z,34.47
2024-03-02T11:04:50.872Z,34.32
2024-03-02T11:07:25.650Z,34.60
2024-03-02T11:10:10.928Z,34.58
2024-03-02T11:12:53.251Z,34.44
2024-03-02T11:15:28.864Z,34.56
2024-03-02T11:18:02.160Z,34.36
2024-03-02T11:20:37.827Z,34.59
2024-03-02T11:23:11.195Z,34.47
2024-03-02T11:25:42.377Z,34.51
2024-03-02T11:28:13.545Z,34.47
2024-03-02T11:30:44.590Z,34.51
2024-03-02T11:33:15.699Z,34.40
2024-03-02T11:35:50.053Z,34.19
2024-03-02T11:38:22.062Z,34.35
2024-03-02T11:40:53.395Z,34.38
2024-03-02T11:43:25.537Z,34.37
2024-03-02T11:46:06.688Z,34.38
2024-03-02T11:48:41.837Z,34.33
2024-03-02T11:51:14.734Z,34.05
2024-03-02T11:53:47.480Z,34.31
2024-03-02T11:56:19.852Z,34.30
2024-03-02T11:58:53.838Z,34.23
2024-03-02T12:01:25.936Z,34.23
2024-03-02T12:03:57.928Z,34.19
2024-03-02T12:06:29.166Z,34.16
2024-03-02T12:09:01.073Z,34.22
2024-03-02T12:11:32.060Z,34.18
2024-03-02T12:14:02.910Z,34.08
2024-03-02T12:16:33.965Z,34.07
2024-03-02T12:19:06.040Z,34.09
2024-03-02T12:21:37.503Z,34.09
2024-03-02T12:24:12.592Z,34.13
2024-03-02T12:26:44.259Z,34.09
2024-03-02T12:29:17.737Z,34.13
2024-03-02T12:31:50.791Z,34.09
2024-03-02T12:34:24.596Z,34.06
2024-03-02T12:36:56.147Z,33.99
2024-03-02T12:39:27.512Z,34.00
2024-03-02T12:41:58.511Z,33.96
2024-03-02T12:44:29.652Z,33.93
2024-03-02T12:47:02.276Z,33.89
2024-03-02T12:49:34.690Z,33.88
2024-03-02T12:52:06.120Z,33.91
2024-03-02T12:54:37.368Z,33.84
2024-03-02T12:57:08.592Z,33.91
2024-03-02T12:59:39.646Z,33.89
2024-03-02T13:02:15.559Z,33.86
2024-03-02T13:04:47.061Z,33.81
2024-03-02T13:07:18.426Z,33.76
2024-03-02T13:09:49.674Z,33.78
2024-03-02T13:12:23.050Z,33.76
2024-03-02T13:14:57.262Z,33.73
2024-03-02T13:17:30.576Z,33.71
2024-03-02T13:20:06.674Z,33.69
2024-03-02T13:22:39.650Z,33.67
2024-03-02T13:25:13.481Z,33.66
2024-03-02T13:27:45.478Z,33.64
2024-03-02T13:30:16.650Z,33.62
2024-03-02T13:32:47.681Z,33.61
2024-03-02T13:35:20.308Z,33.59
2024-03-02T13:37:56.298Z,33.56
2024-03-02T13:40:27.695Z,33.53
2024-03-02T13:43:00.581Z,33.53
2024-03-02T13:45:32.431Z,33.50
2024-03-02T13:48:08.796Z,33.48
2024-03-02T13:50:45.622Z,33.48
2024-03-02T13:53:18.488Z,33.44
2024-03-02T13:55:50.337Z,33.40
2024-03-02T13:58:23.332Z,33.38
2024-03-02T14:00:54.862Z,33.39
2024-03-02T14:03:31.619Z,33.02
2024-03-02T14:06:05.390Z,33.33
2024-03-02T14:08:38.212Z,33.28
2024-03-02T14:11:09.499Z,33.30
2024-03-02T14:13:43.877Z,33.24
2024-03-02T14:16:17.454Z,33.27
2024-03-02T14:18:50.655Z,33.27
2024-03-02T14:21:23.396Z,33.23
2024-03-02T14:23:54.869Z,33.19
2024-03-02T14:26:26.203Z,33.19
2024-03-02T14:28:58.569Z,33.20
2024-03-02T14:31:29.968Z,33.19
2024-03-02T14:34:04.819Z,33.16
2024-03-02T14:36:38.347Z,33.10
2024-03-02T14:39:12.524Z,33.00
2024-03-02T14:41:45.446Z,32.94
2024-03-02T14:44:17.537Z,32.84
2024-03-02T14:46:53.042Z,32.65
2024-03-02T14:49:24.525Z,32.58
2024-03-02T14:51:58.551Z,32.49
2024-03-02T14:54:31.767Z,32.39
2024-03-02T14:57:05.078Z,32.35
2024-03-02T14:59:37.556Z,32.20
2024-03-02T15:02:11.462Z,32.25
2024-03-02T15:04:42.940Z,32.22
2024-03-02T15:07:15.619Z,32.13
2024-03-02T15:09:48.086Z,32.07
2024-03-02T15:12:20.177Z,32.03
2024-03-02T15:14:54.338Z,31.92
2024-03-02T15:17:25.776Z,31.77
2024-03-02T15:19:56.980Z,31.75
2024-03-02T15:22:33.726Z,31.71
2024-03-02T15:25:05.723Z,31.66
2024-03-02T15:27:37.712Z,31.61
2024-03-02T15:30:16.371Z,31.58
2024-03-02T15:32:50.590Z,31.58
2024-03-02T15:35:22.315Z,31.37
2024-03-02T15:37:56.105Z,31.46
2024-03-02T15:40:32.155Z,31.46
2024-03-02T15:43:03.474Z,31.27
2024-03-02T15:45:36.414Z,31.33
2024-03-02T15:48:08.217Z,31.16
2024-03-02T15:50:44.143Z,31.24
2024-03-02T15:53:16.215Z,31.17
2024-03-02T15:55:48.570Z,31.07
2024-03-02T15:58:23.558Z,31.18
2024-03-02T16:00:55.067Z,31.06
2024-03-02T16:03:27.746Z,31.03
2024-03-02T16:05:59.434Z,30.99
2024-03-02T16:08:36.918Z,30.90
2024-03-02T16:11:12.099Z,30.89
2024-03-02T16:13:43.326Z,30.88
2024-03-02T16:16:15.149Z,30.80
2024-03-02T16:18:46.635Z,30.78
2024-03-02T16:21:18.255Z,30.78
2024-03-02T16:23:50.536Z,30.73
2024-03-02T16:26:23.813Z,30.64
2024-03-02T16:28:59.760Z,30.69
2024-03-02T16:31:33.964Z,30.64
2024-03-02T16:34:05.676Z,30.54
2024-03-02T16:36:40.689Z,30.58
2024-03-02T16:39:13.336Z,30.53
2024-03-02T16:41:50.036Z,30.50
2024-03-02T16:44:27.470Z,30.50
2024-03-02T16:46:59.245Z,30.47
2024-03-02T16:49:30.476Z,30.43
2024-03-02T16:52:06.928Z,30.38
2024-03-02T16:54:46.708Z,30.33
2024-03-02T16:57:19.459Z,30.33
2024-03-02T16:59:51.011Z,30.33
2024-03-02T17:02:22.517Z,30.26
2024-03-02T17:04:53.884Z,30.26
2024-03-02T17:07:27.714Z,30.22
2024-03-02T17:10:01.883Z,30.25
2024-03-02T17:12:36.639Z,30.12
2024-03-02T17:15:09.400Z,30.15
2024-03-02T17:17:41.646Z,30.12
2024-03-02T17:20:16.146Z,30.05
2024-03-02T17:22:51.859Z,30.06
2024-03-02T17:25:25.069Z,29.93
2024-03-02T17:28:34.401Z,30.03
2024-03-02T17:31:06.280Z,30.05
2024-03-02T17:33:38.922Z,30.00
2024-03-02T17:36:10.463Z,30.00
2024-03-02T17:38:45.128Z,29.99
2024-03-02T17:41:19.223Z,29.72
2024-03-02T17:43:50.402Z,29.89
2024-03-02T17:46:21.708Z,29.83
2024-03-02T17:48:52.709Z,29.84
2024-03-02T17:51:29.442Z,29.78
2024-03-02T17:54:03.263Z,29.83
2024-03-02T17:56:34.776Z,29.76
2024-03-02T17:59:08.400Z,29.77
2024-03-02T18:01:41.208Z,29.77
2024-03-02T18:04:13.417Z,29.72
2024-03-02T18:06:44.627Z,29.68
2024-03-02T18:09:15.891Z,29.74
2024-03-02T18:11:48.435Z,29.76
2024-03-02T18:14:19.826Z,29.83
2024-03-02T18:16:52.422Z,29.84
2024-03-02T18:19:26.067Z,29.70
2024-03-02T18:21:57.145Z,29.97
2024-03-02T18:24:34.204Z,29.99
2024-03-02T18:27:08.474Z,30.02
2024-03-02T18:29:40.211Z,30.03
2024-03-02T18:32:11.517Z,30.02
2024-03-02T18:34:42.714Z,30.06
2024-03-02T18:37:14.008Z,30.10
2024-03-02T18:39:46.185Z,30.09
2024-03-02T18:42:17.490Z,30.13
2024-03-02T18:44:49.522Z,30.23
2024-03-02T18:47:19.966Z,30.20
2024-03-02T18:49:50.616Z,30.19
2024-03-02T18:52:21.804Z,30.28
2024-03-02T18:54:52.894Z,30.24
2024-03-02T18:57:24.027Z,30.28
2024-03-02T18:59:55.181Z,30.24
2024-03-02T19:02:27.100Z,30.31
2024-03-02T19:04:57.576Z,30.26
2024-03-02T19:07:28.220Z,30.35
2024-03-02T19:09:59.385Z,30.37
2024-03-02T19:12:30.324Z,30.38
2024-03-02T19:15:03.167Z,30.40
2024-03-02T19:17:36.929Z,30.42
2024-03-02T19:20:09.666Z,30.41
2024-03-02T19:22:40.795Z,30.34
2024-03-02T19:25:15.590Z,30.47
2024-03-02T19:27:46.930Z,30.47
2024-03-02T19:30:18.014Z,30.45
2024-03-02T19:32:49.023Z,30.48
2024-03-02T19:35:19.824Z,30.48
2024-03-02T19:37:50.396Z,30.50
2024-03-02T19:40:21.396Z,30.53
2024-03-02T19:42:52.520Z,30.54
2024-03-02T19:45:23.311Z,30.53
2024-03-02T19:47:54.442Z,30.50
2024-03-02T19:50:25.473Z,30.56
2024-03-02T19:52:56.306Z,30.47
2024-03-02T19:55:31.710Z,30.54
2024-03-02T19:58:02.652Z,30.56
2024-03-02T20:00:33.548Z,30.57
2024-03-02T20:03:05.381Z,30.59
2024-03-02T20:05:36.253Z,30.52
2024-03-02T20:08:09.541Z,30.57
2024-03-02T20:10:40.248Z,30.59
2024-03-02T20:13:11.184Z,30.58
2024-03-02T20:15:42.993Z,30.57
2024-03-02T20:18:14.825Z,30.61
2024-03-02T20:20:45.527Z,30.60
2024-03-02T20:23:15.990Z,30.62
2024-03-02T20:25:46.747Z,30.62
2024-03-02T20:28:19.140Z,30.58
2024-03-02T20:30:49.863Z,30.61
2024-03-02T20:33:20.669Z,30.61
2024-03-02T20:35:51.157Z,30.62
2024-03-02T20:38:21.730Z,30.62
2024-03-02T20:40:53.488Z,30.60
2024-03-02T20:43:24.448Z,30.58
2024-03-02T20:45:54.917Z,30.63
2024-03-02T20:48:25.656Z,30.61
2024-03-02T20:50:57.102Z,30.60
2024-03-02T20:53:27.775Z,30.61
2024-03-02T20:55:58.253Z,30.61
2024-03-02T20:58:28.976Z,30.62
2024-03-02T21:01:00.079Z,30.62
2024-03-02T21:03:30.996Z,30.63
2024-03-02T21:06:02.959Z,30.62
2024-03-02T21:08:33.546Z,30.51
2024-03-02T21:11:07.427Z,30.62
2024-03-02T21:13:38.026Z,30.62
2024-03-02T21:16:09.353Z,30.63
2024-03-02T21:18:41.271Z,30.64
2024-03-02T21:21:15.142Z,30.63
2024-03-02T21:23:45.640Z,30.59
2024-03-02T21:26:15.905Z,30.63
2024-03-02T21:28:47.319Z,30.60
2024-03-02T21:31:18.815Z,30.64
2024-03-02T21:33:49.655Z,30.62
2024-03-02T21:36:20.170Z,30.60
2024-03-02T21:38:50.751Z,30.64
2024-03-02T21:41:21.141Z,30.66
2024-03-02T21:43:51.978Z,30.63
2024-03-02T21:46:22.668Z,30.61
2024-03-02T21:48:53.736Z,30.63
2024-03-02T21:51:24.590Z,30.60
2024-03-02T21:53:55.876Z,30.63
2024-03-02T21:56:27.053Z,30.64
2024-03-02T21:58:57.691Z,30.62
2024-03-02T22:01:29.296Z,30.63
2024-03-02T22:03:59.725Z,30.55
2024-03-02T22:06:30.102Z,30.61
2024-03-02T22:09:00.857Z,30.65
2024-03-02T22:11:31.192Z,30.65
2024-03-02T22:14:01.977Z,30.47
2024-03-02T22:16:32.662Z,30.60
2024-03-02T22:19:03.019Z,30.65
2024-03-02T22:21:33.521Z,30.68
2024-03-02T22:24:04.301Z,30.65
2024-03-02T22:26:34.946Z,30.70
2024-03-02T22:29:06.141Z,30.72
2024-03-02T22:31:36.926Z,30.73
2024-03-02T22:34:07.863Z,30.72
2024-03-02T22:36:39.067Z,30.72
2024-03-02T22:39:09.946Z,30.72
2024-03-02T22:41:40.798Z,30.73
2024-03-02T22:44:11.303Z,30.71
2024-03-02T22:46:41.982Z,30.74
2024-03-02T22:49:12.811Z,30.75
2024-03-02T22:51:43.685Z,30.72
2024-03-02T22:54:14.221Z,30.75
2024-03-02T22:56:46.042Z,30.72
2024-03-02T22:59:16.341Z,30.63
2024-03-02T23:01:46.964Z,30.64
2024-03-02T23:04:17.923Z,30.68
2024-03-02T23:06:48.612Z,30.64
2024-03-02T23:09:19.203Z,30.62
2024-03-02T23:11:51.016Z,30.61
2024-03-02T23:14:21.788Z,30.61
2024-03-02T23:16:52.214Z,30.63
2024-03-02T23:19:24.392Z,30.63
2024-03-02T23:21:55.093Z,30.63
2024-03-02T23:24:25.703Z,30.59
2024-03-02T23:26:56.020Z,30.58
2024-03-02T23:29:27.325Z,30.58
2024-03-02T23:31:57.983Z,30.58
2024-03-02T23:34:29.825Z,30.58
2024-03-02T23:37:00.521Z,30.59
2024-03-02T23:39:49.218Z,30.53
2024-03-02T23:42:19.956Z,30.61
2024-03-02T23:44:50.609Z,30.58
2024-03-02T23:47:21.266Z,30.59
2024-03-02T23:49:51.966Z,30.60
2024-03-02T23:52:22.528Z,30.60
2024-03-02T23:54:53.083Z,30.59
2024-03-02T23:57:23.724Z,30.60
2024-03-02T23:59:54.424Z,30.59
